sensor_id;sensor_type;location;lat;lon;timestamp;P1;durP1;ratioP1;P2;durP2;ratioP2
8312;SDS011;4194;43.408;24.626;2022-09-14T00:00:56;1.83;;;1.73;;
8312;SDS011;4194;43.408;24.626;2022-09-14T00:03:21;4.17;;;2.13;;
8312;SDS011;4194;43.408;24.626;2022-09-14T00:05:47;3.50;;;1.97;;
8312;SDS011;4194;43.408;24.626;2022-09-14T00:08:13;2.37;;;1.80;;
8312;SDS011;4194;43.408;24.626;2022-09-14T00:10:40;4.80;;;1.93;;
8312;SDS011;4194;43.408;24.626;2022-09-14T00:13:10;2.80;;;1.70;;
8312;SDS011;4194;43.408;24.626;2022-09-14T00:15:38;2.43;;;1.77;;
8312;SDS011;4194;43.408;24.626;2022-09-14T00:18:06;2.00;;;1.80;;
8312;SDS011;4194;43.408;24.626;2022-09-14T00:20:34;4.03;;;2.10;;
8312;SDS011;4194;43.408;24.626;2022-09-14T00:23:00;2.03;;;1.70;;
8312;SDS011;4194;43.408;24.626;2022-09-14T00:25:26;2.83;;;1.93;;
8312;SDS011;4194;43.408;24.626;2022-09-14T00:27:52;2.03;;;1.57;;
8312;SDS011;4194;43.408;24.626;2022-09-14T00:30:18;2.10;;;1.77;;
8312;SDS011;4194;43.408;24.626;2022-09-14T00:32:45;4.90;;;2.17;;
8312;SDS011;4194;43.408;24.626;2022-09-14T00:35:11;4.90;;;2.00;;
8312;SDS011;4194;43.408;24.626;2022-09-14T00:37:36;2.00;;;1.90;;
8312;SDS011;4194;43.408;24.626;2022-09-14T00:40:04;4.40;;;1.93;;
8312;SDS011;4194;43.408;24.626;2022-09-14T00:42:31;2.17;;;1.90;;
8312;SDS011;4194;43.408;24.626;2022-09-14T00:44:57;2.30;;;2.00;;
8312;SDS011;4194;43.408;24.626;2022-09-14T00:47:32;1.83;;;1.70;;
8312;SDS011;4194;43.408;24.626;2022-09-14T00:49:59;2.43;;;2.10;;
8312;SDS011;4194;43.408;24.626;2022-09-14T00:52:28;4.27;;;1.97;;
8312;SDS011;4194;43.408;24.626;2022-09-14T00:54:58;2.73;;;1.90;;
8312;SDS011;4194;43.408;24.626;2022-09-14T00:57:28;4.33;;;1.97;;
8312;SDS011;4194;43.408;24.626;2022-09-14T00:59:57;2.30;;;2.10;;
8312;SDS011;4194;43.408;24.626;2022-09-14T01:02:24;3.17;;;2.40;;
8312;SDS011;4194;43.408;24.626;2022-09-14T01:04:51;2.80;;;1.80;;
8312;SDS011;4194;43.408;24.626;2022-09-14T01:07:36;2.10;;;2.00;;
8312;SDS011;4194;43.408;24.626;2022-09-14T01:13:13;5.27;;;2.13;;
8312;SDS011;4194;43.408;24.626;2022-09-14T01:16:03;3.83;;;1.90;;
8312;SDS011;4194;43.408;24.626;2022-09-14T01:18:45;4.20;;;2.27;;
8312;SDS011;4194;43.408;24.626;2022-09-14T01:21:19;1.80;;;1.70;;
8312;SDS011;4194;43.408;24.626;2022-09-14T01:24:36;6.33;;;1.87;;
8312;SDS011;4194;43.408;24.626;2022-09-14T01:32:31;2.20;;;2.00;;
8312;SDS011;4194;43.408;24.626;2022-09-14T01:37:58;2.27;;;2.00;;
8312;SDS011;4194;43.408;24.626;2022-09-14T01:40:39;2.60;;;2.13;;
8312;SDS011;4194;43.408;24.626;2022-09-14T01:43:19;2.80;;;2.03;;
8312;SDS011;4194;43.408;24.626;2022-09-14T01:45:52;2.23;;;2.00;;
8312;SDS011;4194;43.408;24.626;2022-09-14T01:48:24;3.40;;;3.10;;
8312;SDS011;4194;43.408;24.626;2022-09-14T01:50:56;3.00;;;2.03;;
8312;SDS011;4194;43.408;24.626;2022-09-14T01:53:34;2.50;;;2.30;;
8312;SDS011;4194;43.408;24.626;2022-09-14T01:56:09;5.37;;;2.50;;
8312;SDS011;4194;43.408;24.626;2022-09-14T01:58:50;2.83;;;2.20;;
8312;SDS011;4194;43.408;24.626;2022-09-14T02:01:36;4.70;;;2.63;;
8312;SDS011;4194;43.408;24.626;2022-09-14T02:04:07;6.57;;;2.70;;
8312;SDS011;4194;43.408;24.626;2022-09-14T02:06:41;3.00;;;2.77;;
8312;SDS011;4194;43.408;24.626;2022-09-14T02:09:10;3.27;;;2.33;;
8312;SDS011;4194;43.408;24.626;2022-09-14T02:11:38;3.47;;;2.63;;
8312;SDS011;4194;43.408;24.626;2022-09-14T02:14:04;8.67;;;3.40;;
8312;SDS011;4194;43.408;24.626;2022-09-14T02:16:30;7.47;;;2.60;;
8312;SDS011;4194;43.408;24.626;2022-09-14T02:18:56;3.93;;;2.87;;
8312;SDS011;4194;43.408;24.626;2022-09-14T02:21:26;9.70;;;2.37;;
8312;SDS011;4194;43.408;24.626;2022-09-14T02:23:55;4.63;;;2.60;;
8312;SDS011;4194;43.408;24.626;2022-09-14T02:26:22;2.20;;;2.07;;
8312;SDS011;4194;43.408;24.626;2022-09-14T02:28:49;3.73;;;2.47;;
8312;SDS011;4194;43.408;24.626;2022-09-14T02:36:52;3.23;;;2.40;;
8312;SDS011;4194;43.408;24.626;2022-09-14T02:45:17;2.40;;;1.80;;
8312;SDS011;4194;43.408;24.626;2022-09-14T02:47:47;4.27;;;2.43;;
8312;SDS011;4194;43.408;24.626;2022-09-14T02:50:51;3.33;;;2.23;;
8312;SDS011;4194;43.408;24.626;2022-09-14T02:53:36;2.97;;;2.40;;
8312;SDS011;4194;43.408;24.626;2022-09-14T02:56:09;3.70;;;2.50;;
8312;SDS011;4194;43.408;24.626;2022-09-14T02:58:37;2.73;;;2.37;;
8312;SDS011;4194;43.408;24.626;2022-09-14T03:01:08;2.63;;;2.40;;
8312;SDS011;4194;43.408;24.626;2022-09-14T03:03:35;3.57;;;2.23;;
8312;SDS011;4194;43.408;24.626;2022-09-14T03:06:02;2.40;;;2.20;;
8312;SDS011;4194;43.408;24.626;2022-09-14T03:08:28;2.90;;;2.23;;
8312;SDS011;4194;43.408;24.626;2022-09-14T03:10:54;2.97;;;2.00;;
8312;SDS011;4194;43.408;24.626;2022-09-14T03:13:19;2.47;;;2.27;;
8312;SDS011;4194;43.408;24.626;2022-09-14T03:15:45;2.57;;;2.30;;
8312;SDS011;4194;43.408;24.626;2022-09-14T03:18:11;2.67;;;2.47;;
8312;SDS011;4194;43.408;24.626;2022-09-14T03:20:37;3.17;;;2.40;;
8312;SDS011;4194;43.408;24.626;2022-09-14T03:23:03;4.87;;;2.27;;
8312;SDS011;4194;43.408;24.626;2022-09-14T03:25:29;2.97;;;2.23;;
8312;SDS011;4194;43.408;24.626;2022-09-14T03:27:57;3.97;;;2.50;;
8312;SDS011;4194;43.408;24.626;2022-09-14T03:30:24;4.07;;;2.20;;
8312;SDS011;4194;43.408;24.626;2022-09-14T03:32:50;3.37;;;2.17;;
8312;SDS011;4194;43.408;24.626;2022-09-14T03:35:16;2.70;;;1.97;;
8312;SDS011;4194;43.408;24.626;2022-09-14T03:37:42;2.47;;;2.07;;
8312;SDS011;4194;43.408;24.626;2022-09-14T03:40:10;2.93;;;2.30;;
8312;SDS011;4194;43.408;24.626;2022-09-14T03:42:41;3.57;;;2.67;;
8312;SDS011;4194;43.408;24.626;2022-09-14T03:45:08;2.60;;;2.40;;
8312;SDS011;4194;43.408;24.626;2022-09-14T03:47:35;6.23;;;2.70;;
8312;SDS011;4194;43.408;24.626;2022-09-14T03:50:00;3.10;;;2.43;;
8312;SDS011;4194;43.408;24.626;2022-09-14T03:52:26;4.23;;;2.30;;
8312;SDS011;4194;43.408;24.626;2022-09-14T03:54:52;3.33;;;2.23;;
8312;SDS011;4194;43.408;24.626;2022-09-14T03:57:17;6.03;;;2.50;;
8312;SDS011;4194;43.408;24.626;2022-09-14T03:59:43;2.97;;;2.43;;
8312;SDS011;4194;43.408;24.626;2022-09-14T04:02:10;2.77;;;2.27;;
8312;SDS011;4194;43.408;24.626;2022-09-14T04:04:36;11.57;;;3.97;;
8312;SDS011;4194;43.408;24.626;2022-09-14T04:07:01;3.07;;;2.23;;
8312;SDS011;4194;43.408;24.626;2022-09-14T04:09:27;5.00;;;2.58;;
8312;SDS011;4194;43.408;24.626;2022-09-14T04:11:52;4.37;;;2.33;;
8312;SDS011;4194;43.408;24.626;2022-09-14T04:14:18;3.23;;;2.87;;
8312;SDS011;4194;43.408;24.626;2022-09-14T04:16:44;3.93;;;2.27;;
8312;SDS011;4194;43.408;24.626;2022-09-14T04:19:10;5.17;;;2.43;;
8312;SDS011;4194;43.408;24.626;2022-09-14T04:21:36;5.00;;;2.77;;
8312;SDS011;4194;43.408;24.626;2022-09-14T04:24:02;4.77;;;2.30;;
8312;SDS011;4194;43.408;24.626;2022-09-14T04:26:28;3.40;;;2.50;;
8312;SDS011;4194;43.408;24.626;2022-09-14T04:28:55;2.43;;;2.23;;
8312;SDS011;4194;43.408;24.626;2022-09-14T04:31:21;4.40;;;2.63;;
8312;SDS011;4194;43.408;24.626;2022-09-14T04:33:48;3.23;;;2.60;;
8312;SDS011;4194;43.408;24.626;2022-09-14T04:36:18;6.07;;;2.90;;
8312;SDS011;4194;43.408;24.626;2022-09-14T04:38:45;3.60;;;2.60;;
8312;SDS011;4194;43.408;24.626;2022-09-14T04:41:12;5.73;;;2.93;;
8312;SDS011;4194;43.408;24.626;2022-09-14T04:43:41;5.00;;;3.33;;
8312;SDS011;4194;43.408;24.626;2022-09-14T04:46:12;4.90;;;3.23;;
8312;SDS011;4194;43.408;24.626;2022-09-14T04:48:39;7.90;;;3.40;;
8312;SDS011;4194;43.408;24.626;2022-09-14T04:51:38;4.27;;;2.70;;
8312;SDS011;4194;43.408;24.626;2022-09-14T04:53:58;7.67;;;3.30;;
8312;SDS011;4194;43.408;24.626;2022-09-14T04:56:25;6.67;;;3.17;;
8312;SDS011;4194;43.408;24.626;2022-09-14T04:58:53;7.43;;;3.33;;
8312;SDS011;4194;43.408;24.626;2022-09-14T05:01:22;5.67;;;2.90;;
8312;SDS011;4194;43.408;24.626;2022-09-14T05:03:49;6.03;;;3.17;;
8312;SDS011;4194;43.408;24.626;2022-09-14T05:06:19;6.53;;;2.73;;
8312;SDS011;4194;43.408;24.626;2022-09-14T05:08:49;8.77;;;3.07;;
8312;SDS011;4194;43.408;24.626;2022-09-14T05:11:19;3.07;;;2.57;;
8312;SDS011;4194;43.408;24.626;2022-09-14T05:13:50;6.23;;;2.90;;
8312;SDS011;4194;43.408;24.626;2022-09-14T05:16:17;3.73;;;2.40;;
8312;SDS011;4194;43.408;24.626;2022-09-14T05:18:44;5.93;;;2.50;;
8312;SDS011;4194;43.408;24.626;2022-09-14T05:21:12;8.37;;;3.70;;
8312;SDS011;4194;43.408;24.626;2022-09-14T05:23:39;5.63;;;3.00;;
8312;SDS011;4194;43.408;24.626;2022-09-14T05:26:05;3.67;;;3.23;;
8312;SDS011;4194;43.408;24.626;2022-09-14T05:28:31;6.37;;;3.30;;
8312;SDS011;4194;43.408;24.626;2022-09-14T05:30:58;6.07;;;3.73;;
8312;SDS011;4194;43.408;24.626;2022-09-14T05:33:24;6.57;;;3.50;;
8312;SDS011;4194;43.408;24.626;2022-09-14T05:35:50;4.83;;;3.27;;
8312;SDS011;4194;43.408;24.626;2022-09-14T05:38:16;6.00;;;3.40;;
8312;SDS011;4194;43.408;24.626;2022-09-14T05:40:42;7.57;;;4.03;;
8312;SDS011;4194;43.408;24.626;2022-09-14T05:43:07;6.67;;;3.73;;
8312;SDS011;4194;43.408;24.626;2022-09-14T05:45:33;8.80;;;3.93;;
8312;SDS011;4194;43.408;24.626;2022-09-14T05:47:59;7.70;;;4.10;;
8312;SDS011;4194;43.408;24.626;2022-09-14T05:50:28;7.63;;;3.97;;
8312;SDS011;4194;43.408;24.626;2022-09-14T05:52:55;9.57;;;3.20;;
8312;SDS011;4194;43.408;24.626;2022-09-14T05:55:20;6.10;;;3.70;;
8312;SDS011;4194;43.408;24.626;2022-09-14T05:57:49;8.70;;;3.27;;
8312;SDS011;4194;43.408;24.626;2022-09-14T06:00:16;5.67;;;3.40;;
8312;SDS011;4194;43.408;24.626;2022-09-14T06:02:46;8.87;;;3.30;;
8312;SDS011;4194;43.408;24.626;2022-09-14T06:05:15;6.03;;;3.40;;
8312;SDS011;4194;43.408;24.626;2022-09-14T06:07:44;10.83;;;4.10;;
8312;SDS011;4194;43.408;24.626;2022-09-14T06:10:14;12.90;;;4.77;;
8312;SDS011;4194;43.408;24.626;2022-09-14T06:12:40;11.90;;;5.00;;
8312;SDS011;4194;43.408;24.626;2022-09-14T06:15:06;13.17;;;4.77;;
8312;SDS011;4194;43.408;24.626;2022-09-14T06:17:32;15.03;;;5.20;;
8312;SDS011;4194;43.408;24.626;2022-09-14T06:19:57;16.73;;;5.10;;
8312;SDS011;4194;43.408;24.626;2022-09-14T06:22:23;13.80;;;4.60;;
8312;SDS011;4194;43.408;24.626;2022-09-14T06:24:49;11.90;;;4.37;;
8312;SDS011;4194;43.408;24.626;2022-09-14T06:27:14;5.07;;;3.77;;
8312;SDS011;4194;43.408;24.626;2022-09-14T06:29:40;20.67;;;4.23;;
8312;SDS011;4194;43.408;24.626;2022-09-14T06:32:06;8.70;;;4.30;;
8312;SDS011;4194;43.408;24.626;2022-09-14T06:34:31;12.20;;;4.50;;
8312;SDS011;4194;43.408;24.626;2022-09-14T06:36:57;12.37;;;4.30;;
8312;SDS011;4194;43.408;24.626;2022-09-14T06:39:23;14.27;;;4.60;;
8312;SDS011;4194;43.408;24.626;2022-09-14T06:41:49;7.97;;;4.20;;
8312;SDS011;4194;43.408;24.626;2022-09-14T06:44:16;8.70;;;5.20;;
8312;SDS011;4194;43.408;24.626;2022-09-14T06:46:42;8.37;;;5.23;;
8312;SDS011;4194;43.408;24.626;2022-09-14T06:49:10;14.63;;;5.97;;
8312;SDS011;4194;43.408;24.626;2022-09-14T06:51:41;6.67;;;5.73;;
8312;SDS011;4194;43.408;24.626;2022-09-14T06:54:09;8.27;;;5.40;;
8312;SDS011;4194;43.408;24.626;2022-09-14T06:56:37;14.60;;;5.27;;
8312;SDS011;4194;43.408;24.626;2022-09-14T06:59:05;8.87;;;4.67;;
8312;SDS011;4194;43.408;24.626;2022-09-14T07:01:31;12.73;;;4.33;;
8312;SDS011;4194;43.408;24.626;2022-09-14T07:03:58;6.30;;;3.87;;
8312;SDS011;4194;43.408;24.626;2022-09-14T07:06:26;8.07;;;3.70;;
8312;SDS011;4194;43.408;24.626;2022-09-14T07:08:53;14.13;;;3.47;;
8312;SDS011;4194;43.408;24.626;2022-09-14T07:11:20;5.00;;;3.17;;
8312;SDS011;4194;43.408;24.626;2022-09-14T07:13:50;5.17;;;3.20;;
8312;SDS011;4194;43.408;24.626;2022-09-14T07:16:18;4.53;;;2.70;;
8312;SDS011;4194;43.408;24.626;2022-09-14T07:18:45;7.47;;;2.70;;
8312;SDS011;4194;43.408;24.626;2022-09-14T07:21:12;3.70;;;2.03;;
8312;SDS011;4194;43.408;24.626;2022-09-14T07:23:40;4.13;;;2.40;;
8312;SDS011;4194;43.408;24.626;2022-09-14T07:26:11;3.43;;;1.60;;
8312;SDS011;4194;43.408;24.626;2022-09-14T07:28:42;2.83;;;1.50;;
8312;SDS011;4194;43.408;24.626;2022-09-14T07:31:19;3.03;;;1.60;;
8312;SDS011;4194;43.408;24.626;2022-09-14T07:33:51;1.70;;;1.60;;
8312;SDS011;4194;43.408;24.626;2022-09-14T07:36:21;7.23;;;2.30;;
8312;SDS011;4194;43.408;24.626;2022-09-14T07:38:48;2.83;;;1.70;;
8312;SDS011;4194;43.408;24.626;2022-09-14T07:41:13;2.27;;;1.70;;
8312;SDS011;4194;43.408;24.626;2022-09-14T07:43:39;4.33;;;1.60;;
8312;SDS011;4194;43.408;24.626;2022-09-14T07:46:06;2.93;;;1.77;;
8312;SDS011;4194;43.408;24.626;2022-09-14T07:48:32;1.60;;;1.50;;
8312;SDS011;4194;43.408;24.626;2022-09-14T07:51:03;1.80;;;1.33;;
8312;SDS011;4194;43.408;24.626;2022-09-14T07:53:30;1.70;;;1.50;;
8312;SDS011;4194;43.408;24.626;2022-09-14T07:55:59;3.33;;;1.77;;
8312;SDS011;4194;43.408;24.626;2022-09-14T07:58:29;1.50;;;1.40;;
8312;SDS011;4194;43.408;24.626;2022-09-14T08:01:03;2.93;;;1.47;;
8312;SDS011;4194;43.408;24.626;2022-09-14T08:03:32;1.70;;;1.60;;
8312;SDS011;4194;43.408;24.626;2022-09-14T08:06:05;1.50;;;1.37;;
8312;SDS011;4194;43.408;24.626;2022-09-14T08:08:37;1.53;;;1.27;;
8312;SDS011;4194;43.408;24.626;2022-09-14T08:13:37;1.83;;;1.63;;
8312;SDS011;4194;43.408;24.626;2022-09-14T08:16:05;1.63;;;1.23;;
8312;SDS011;4194;43.408;24.626;2022-09-14T08:18:32;1.77;;;1.67;;
8312;SDS011;4194;43.408;24.626;2022-09-14T08:21:06;3.43;;;1.47;;
8312;SDS011;4194;43.408;24.626;2022-09-14T08:23:37;2.77;;;1.90;;
8312;SDS011;4194;43.408;24.626;2022-09-14T08:26:04;1.50;;;1.40;;
8312;SDS011;4194;43.408;24.626;2022-09-14T08:28:32;2.20;;;1.83;;
8312;SDS011;4194;43.408;24.626;2022-09-14T08:31:02;2.87;;;1.60;;
8312;SDS011;4194;43.408;24.626;2022-09-14T08:33:35;1.67;;;1.47;;
8312;SDS011;4194;43.408;24.626;2022-09-14T08:36:02;4.23;;;1.63;;
8312;SDS011;4194;43.408;24.626;2022-09-14T08:38:30;2.33;;;1.50;;
8312;SDS011;4194;43.408;24.626;2022-09-14T08:40:57;2.50;;;1.20;;
8312;SDS011;4194;43.408;24.626;2022-09-14T08:43:26;1.40;;;1.13;;
8312;SDS011;4194;43.408;24.626;2022-09-14T08:45:54;5.27;;;1.10;;
8312;SDS011;4194;43.408;24.626;2022-09-14T08:48:28;7.20;;;1.80;;
8312;SDS011;4194;43.408;24.626;2022-09-14T08:50:58;5.83;;;1.67;;
8312;SDS011;4194;43.408;24.626;2022-09-14T08:53:24;4.23;;;1.47;;
8312;SDS011;4194;43.408;24.626;2022-09-14T08:55:55;2.03;;;1.30;;
8312;SDS011;4194;43.408;24.626;2022-09-14T09:04:35;1.97;;;1.30;;
8312;SDS011;4194;43.408;24.626;2022-09-14T09:07:30;3.77;;;1.70;;
8312;SDS011;4194;43.408;24.626;2022-09-14T09:10:03;2.53;;;1.20;;
8312;SDS011;4194;43.408;24.626;2022-09-14T09:12:37;1.40;;;1.30;;
8312;SDS011;4194;43.408;24.626;2022-09-14T09:17:58;4.40;;;1.60;;
8312;SDS011;4194;43.408;24.626;2022-09-14T09:20:50;1.77;;;1.47;;
8312;SDS011;4194;43.408;24.626;2022-09-14T09:25:56;1.57;;;1.30;;
8312;SDS011;4194;43.408;24.626;2022-09-14T09:28:30;1.33;;;1.10;;
8312;SDS011;4194;43.408;24.626;2022-09-14T09:30:59;2.37;;;1.10;;
8312;SDS011;4194;43.408;24.626;2022-09-14T09:33:29;3.33;;;1.20;;
8312;SDS011;4194;43.408;24.626;2022-09-14T09:35:55;3.70;;;1.20;;
8312;SDS011;4194;43.408;24.626;2022-09-14T09:38:23;3.23;;;1.30;;
8312;SDS011;4194;43.408;24.626;2022-09-14T09:40:51;1.50;;;1.40;;
8312;SDS011;4194;43.408;24.626;2022-09-14T09:43:21;6.53;;;2.03;;
8312;SDS011;4194;43.408;24.626;2022-09-14T09:45:48;2.50;;;1.20;;
8312;SDS011;4194;43.408;24.626;2022-09-14T09:48:15;1.30;;;1.20;;
8312;SDS011;4194;43.408;24.626;2022-09-14T09:50:47;4.00;;;1.27;;
8312;SDS011;4194;43.408;24.626;2022-09-14T09:53:47;2.97;;;1.40;;
8312;SDS011;4194;43.408;24.626;2022-09-14T09:56:17;2.33;;;1.70;;
8312;SDS011;4194;43.408;24.626;2022-09-14T09:58:54;2.63;;;1.63;;
8312;SDS011;4194;43.408;24.626;2022-09-14T10:01:27;1.90;;;1.60;;
8312;SDS011;4194;43.408;24.626;2022-09-14T10:06:29;1.50;;;1.40;;
8312;SDS011;4194;43.408;24.626;2022-09-14T10:08:56;1.77;;;1.23;;
8312;SDS011;4194;43.408;24.626;2022-09-14T10:11:35;3.77;;;1.30;;
8312;SDS011;4194;43.408;24.626;2022-09-14T10:14:02;4.13;;;1.97;;
8312;SDS011;4194;43.408;24.626;2022-09-14T10:16:37;1.50;;;1.40;;
8312;SDS011;4194;43.408;24.626;2022-09-14T10:19:13;2.03;;;1.50;;
8312;SDS011;4194;43.408;24.626;2022-09-14T10:22:04;1.70;;;1.20;;
8312;SDS011;4194;43.408;24.626;2022-09-14T10:24:40;2.90;;;1.57;;
8312;SDS011;4194;43.408;24.626;2022-09-14T10:29:59;4.10;;;1.53;;
8312;SDS011;4194;43.408;24.626;2022-09-14T10:32:28;1.50;;;1.40;;
8312;SDS011;4194;43.408;24.626;2022-09-14T10:34:56;2.87;;;1.60;;
8312;SDS011;4194;43.408;24.626;2022-09-14T10:42:38;2.27;;;1.60;;
8312;SDS011;4194;43.408;24.626;2022-09-14T10:45:24;2.33;;;1.40;;
8312;SDS011;4194;43.408;24.626;2022-09-14T10:47:59;1.77;;;1.57;;
8312;SDS011;4194;43.408;24.626;2022-09-14T10:51:10;6.70;;;1.70;;
8312;SDS011;4194;43.408;24.626;2022-09-14T10:59:24;1.17;;;1.08;;
8312;SDS011;4194;43.408;24.626;2022-09-14T11:04:59;3.35;;;1.50;;
8312;SDS011;4194;43.408;24.626;2022-09-14T11:10:55;3.10;;;1.80;;
8312;SDS011;4194;43.408;24.626;2022-09-14T11:24:41;1.40;;;1.30;;
8312;SDS011;4194;43.408;24.626;2022-09-14T11:29:42;2.22;;;1.35;;
8312;SDS011;4194;43.408;24.626;2022-09-14T11:32:14;2.00;;;1.30;;
8312;SDS011;4194;43.408;24.626;2022-09-14T11:34:46;2.78;;;1.15;;
8312;SDS011;4194;43.408;24.626;2022-09-14T11:37:29;2.72;;;1.10;;
8312;SDS011;4194;43.408;24.626;2022-09-14T11:40:06;1.20;;;1.10;;
8312;SDS011;4194;43.408;24.626;2022-09-14T11:42:47;3.00;;;1.45;;
8312;SDS011;4194;43.408;24.626;2022-09-14T11:45:27;2.55;;;1.20;;
8312;SDS011;4194;43.408;24.626;2022-09-14T11:48:01;1.45;;;1.35;;
8312;SDS011;4194;43.408;24.626;2022-09-14T11:50:34;1.52;;;1.40;;
8312;SDS011;4194;43.408;24.626;2022-09-14T11:53:13;2.80;;;1.35;;
8312;SDS011;4194;43.408;24.626;2022-09-14T11:55:43;4.70;;;1.35;;
8312;SDS011;4194;43.408;24.626;2022-09-14T11:58:21;2.22;;;1.33;;
8312;SDS011;4194;43.408;24.626;2022-09-14T12:11:47;1.20;;;1.10;;
8312;SDS011;4194;43.408;24.626;2022-09-14T12:19:39;10.75;;;1.20;;
8312;SDS011;4194;43.408;24.626;2022-09-14T12:27:42;1.42;;;1.33;;
8312;SDS011;4194;43.408;24.626;2022-09-14T12:30:32;1.80;;;1.10;;
8312;SDS011;4194;43.408;24.626;2022-09-14T12:32:59;1.92;;;1.10;;
8312;SDS011;4194;43.408;24.626;2022-09-14T12:40:56;2.25;;;1.67;;
8312;SDS011;4194;43.408;24.626;2022-09-14T12:46:07;1.48;;;1.38;;
8312;SDS011;4194;43.408;24.626;2022-09-14T12:59:21;2.35;;;1.50;;
8312;SDS011;4194;43.408;24.626;2022-09-14T13:04:52;1.33;;;1.23;;
8312;SDS011;4194;43.408;24.626;2022-09-14T13:07:19;1.55;;;1.40;;
8312;SDS011;4194;43.408;24.626;2022-09-14T13:09:48;1.58;;;1.30;;
8312;SDS011;4194;43.408;24.626;2022-09-14T13:12:49;3.03;;;1.20;;
8312;SDS011;4194;43.408;24.626;2022-09-14T13:15:25;3.42;;;1.65;;
8312;SDS011;4194;43.408;24.626;2022-09-14T13:17:58;4.30;;;1.70;;
8312;SDS011;4194;43.408;24.626;2022-09-14T13:20:27;3.92;;;1.70;;
8312;SDS011;4194;43.408;24.626;2022-09-14T13:22:54;2.47;;;1.40;;
8312;SDS011;4194;43.408;24.626;2022-09-14T13:25:28;2.35;;;1.60;;
8312;SDS011;4194;43.408;24.626;2022-09-14T13:27:56;5.57;;;1.70;;
8312;SDS011;4194;43.408;24.626;2022-09-14T13:30:24;2.15;;;1.02;;
8312;SDS011;4194;43.408;24.626;2022-09-14T13:32:52;1.70;;;1.20;;
8312;SDS011;4194;43.408;24.626;2022-09-14T13:35:34;1.85;;;1.02;;
8312;SDS011;4194;43.408;24.626;2022-09-14T13:38:07;2.30;;;1.08;;
8312;SDS011;4194;43.408;24.626;2022-09-14T13:40:38;2.72;;;1.00;;
8312;SDS011;4194;43.408;24.626;2022-09-14T13:43:03;1.25;;;1.15;;
8312;SDS011;4194;43.408;24.626;2022-09-14T13:45:30;2.13;;;1.30;;
8312;SDS011;4194;43.408;24.626;2022-09-14T13:47:56;1.45;;;1.20;;
8312;SDS011;4194;43.408;24.626;2022-09-14T13:50:22;1.15;;;1.10;;
8312;SDS011;4194;43.408;24.626;2022-09-14T13:52:51;1.20;;;1.00;;
8312;SDS011;4194;43.408;24.626;2022-09-14T13:55:23;2.58;;;1.00;;
8312;SDS011;4194;43.408;24.626;2022-09-14T14:00:55;1.65;;;1.00;;
8312;SDS011;4194;43.408;24.626;2022-09-14T14:03:32;2.58;;;1.30;;
8312;SDS011;4194;43.408;24.626;2022-09-14T14:06:29;2.05;;;1.40;;
8312;SDS011;4194;43.408;24.626;2022-09-14T14:09:00;4.95;;;1.40;;
8312;SDS011;4194;43.408;24.626;2022-09-14T14:11:33;1.13;;;1.02;;
8312;SDS011;4194;43.408;24.626;2022-09-14T14:19:57;2.50;;;1.23;;
8312;SDS011;4194;43.408;24.626;2022-09-14T14:22:53;2.43;;;1.27;;
8312;SDS011;4194;43.408;24.626;2022-09-14T14:25:26;1.20;;;1.10;;
8312;SDS011;4194;43.408;24.626;2022-09-14T14:28:02;2.20;;;1.05;;
8312;SDS011;4194;43.408;24.626;2022-09-14T14:30:31;3.72;;;1.27;;
8312;SDS011;4194;43.408;24.626;2022-09-14T14:33:00;2.03;;;1.40;;
8312;SDS011;4194;43.408;24.626;2022-09-14T14:35:27;4.13;;;1.30;;
8312;SDS011;4194;43.408;24.626;2022-09-14T14:37:55;1.67;;;1.40;;
8312;SDS011;4194;43.408;24.626;2022-09-14T14:40:21;2.28;;;1.55;;
8312;SDS011;4194;43.408;24.626;2022-09-14T14:42:48;2.67;;;1.50;;
8312;SDS011;4194;43.408;24.626;2022-09-14T14:45:19;1.27;;;1.08;;
8312;SDS011;4194;43.408;24.626;2022-09-14T14:47:50;3.55;;;1.50;;
8312;SDS011;4194;43.408;24.626;2022-09-14T14:50:18;1.40;;;1.30;;
8312;SDS011;4194;43.408;24.626;2022-09-14T14:52:46;7.97;;;2.47;;
8312;SDS011;4194;43.408;24.626;2022-09-14T14:55:12;12.48;;;6.47;;
8312;SDS011;4194;43.408;24.626;2022-09-14T14:57:38;8.93;;;4.93;;
8312;SDS011;4194;43.408;24.626;2022-09-14T15:00:15;16.00;;;8.02;;
8312;SDS011;4194;43.408;24.626;2022-09-14T15:02:48;4.32;;;2.58;;
8312;SDS011;4194;43.408;24.626;2022-09-14T15:05:15;11.10;;;6.68;;
8312;SDS011;4194;43.408;24.626;2022-09-14T15:07:41;3.63;;;2.22;;
8312;SDS011;4194;43.408;24.626;2022-09-14T15:10:07;2.40;;;2.10;;
8312;SDS011;4194;43.408;24.626;2022-09-14T15:12:36;33.80;;;15.18;;
8312;SDS011;4194;43.408;24.626;2022-09-14T15:15:03;35.10;;;17.00;;
8312;SDS011;4194;43.408;24.626;2022-09-14T15:17:29;20.98;;;10.82;;
8312;SDS011;4194;43.408;24.626;2022-09-14T15:19:56;5.75;;;2.45;;
8312;SDS011;4194;43.408;24.626;2022-09-14T15:22:22;2.00;;;1.00;;
8312;SDS011;4194;43.408;24.626;2022-09-14T15:24:48;1.55;;;1.00;;
8312;SDS011;4194;43.408;24.626;2022-09-14T15:27:15;3.47;;;1.33;;
8312;SDS011;4194;43.408;24.626;2022-09-14T15:29:40;1.40;;;1.10;;
8312;SDS011;4194;43.408;24.626;2022-09-14T15:32:06;2.03;;;1.48;;
8312;SDS011;4194;43.408;24.626;2022-09-14T15:34:32;1.30;;;1.20;;
8312;SDS011;4194;43.408;24.626;2022-09-14T15:36:57;3.60;;;1.17;;
8312;SDS011;4194;43.408;24.626;2022-09-14T15:39:27;4.15;;;1.30;;
8312;SDS011;4194;43.408;24.626;2022-09-14T15:41:54;2.22;;;1.45;;
8312;SDS011;4194;43.408;24.626;2022-09-14T15:44:20;20.67;;;16.40;;
8312;SDS011;4194;43.408;24.626;2022-09-14T15:46:46;21.37;;;14.57;;
8312;SDS011;4194;43.408;24.626;2022-09-14T15:49:14;12.17;;;8.67;;
8312;SDS011;4194;43.408;24.626;2022-09-14T15:51:45;9.43;;;5.70;;
8312;SDS011;4194;43.408;24.626;2022-09-14T15:54:13;5.57;;;2.83;;
8312;SDS011;4194;43.408;24.626;2022-09-14T15:56:39;7.70;;;2.50;;
8312;SDS011;4194;43.408;24.626;2022-09-14T15:59:06;4.90;;;2.40;;
8312;SDS011;4194;43.408;24.626;2022-09-14T16:01:32;6.00;;;3.00;;
8312;SDS011;4194;43.408;24.626;2022-09-14T16:04:03;3.27;;;1.93;;
8312;SDS011;4194;43.408;24.626;2022-09-14T16:06:31;3.20;;;2.87;;
8312;SDS011;4194;43.408;24.626;2022-09-14T16:08:59;5.23;;;3.87;;
8312;SDS011;4194;43.408;24.626;2022-09-14T16:11:25;8.77;;;4.53;;
8312;SDS011;4194;43.408;24.626;2022-09-14T16:13:51;11.53;;;3.90;;
8312;SDS011;4194;43.408;24.626;2022-09-14T16:16:18;9.83;;;3.70;;
8312;SDS011;4194;43.408;24.626;2022-09-14T16:18:45;7.73;;;2.70;;
8312;SDS011;4194;43.408;24.626;2022-09-14T16:21:12;9.17;;;3.03;;
8312;SDS011;4194;43.408;24.626;2022-09-14T16:23:44;3.23;;;2.47;;
8312;SDS011;4194;43.408;24.626;2022-09-14T16:26:13;6.60;;;2.37;;
8312;SDS011;4194;43.408;24.626;2022-09-14T16:28:44;8.37;;;2.80;;
8312;SDS011;4194;43.408;24.626;2022-09-14T16:31:12;7.23;;;3.20;;
8312;SDS011;4194;43.408;24.626;2022-09-14T16:33:45;7.70;;;3.80;;
8312;SDS011;4194;43.408;24.626;2022-09-14T16:36:13;7.90;;;4.10;;
8312;SDS011;4194;43.408;24.626;2022-09-14T16:38:41;9.27;;;5.00;;
8312;SDS011;4194;43.408;24.626;2022-09-14T16:41:07;8.67;;;4.90;;
8312;SDS011;4194;43.408;24.626;2022-09-14T16:43:33;11.60;;;4.73;;
8312;SDS011;4194;43.408;24.626;2022-09-14T16:46:01;9.30;;;5.00;;
8312;SDS011;4194;43.408;24.626;2022-09-14T16:48:27;15.37;;;5.60;;
8312;SDS011;4194;43.408;24.626;2022-09-14T16:50:53;15.77;;;6.57;;
8312;SDS011;4194;43.408;24.626;2022-09-14T16:53:20;16.73;;;5.97;;
8312;SDS011;4194;43.408;24.626;2022-09-14T16:55:45;11.77;;;5.50;;
8312;SDS011;4194;43.408;24.626;2022-09-14T16:58:12;15.60;;;5.00;;
8312;SDS011;4194;43.408;24.626;2022-09-14T17:00:38;12.50;;;5.23;;
8312;SDS011;4194;43.408;24.626;2022-09-14T17:03:04;9.83;;;5.00;;
8312;SDS011;4194;43.408;24.626;2022-09-14T17:05:29;9.77;;;4.80;;
8312;SDS011;4194;43.408;24.626;2022-09-14T17:07:55;11.00;;;5.63;;
8312;SDS011;4194;43.408;24.626;2022-09-14T17:10:21;14.87;;;5.90;;
8312;SDS011;4194;43.408;24.626;2022-09-14T17:12:46;10.00;;;5.67;;
8312;SDS011;4194;43.408;24.626;2022-09-14T17:15:12;10.20;;;5.20;;
8312;SDS011;4194;43.408;24.626;2022-09-14T17:17:38;10.27;;;5.27;;
8312;SDS011;4194;43.408;24.626;2022-09-14T17:20:04;15.27;;;6.10;;
8312;SDS011;4194;43.408;24.626;2022-09-14T17:22:31;11.77;;;5.67;;